createdAt,value
2017-08-30T00:00:41.898Z,31.35
2017-08-30T00:03:10.078Z,30.95
2017-08-30T00:05:38.226Z,30.58
2017-08-30T00:08:06.373Z,30.25
2017-08-30T00:10:34.578Z,29.90
2017-08-30T00:13:02.744Z,31.85
2017-08-30T00:15:30.917Z,30.02
2017-08-30T00:17:59.128Z,29.92
2017-08-30T00:20:27.282Z,29.75
2017-08-30T00:22:55.443Z,28.60
2017-08-30T00:25:41.410Z,30.00
2017-08-30T00:28:09.576Z,60.80
2017-08-30T00:30:37.749Z,41.20
2017-08-30T00:33:05.926Z,39.75
2017-08-30T00:35:34.099Z,33.80
2017-08-30T00:38:02.273Z,30.27
2017-08-30T00:40:30.485Z,31.23
2017-08-30T00:42:58.658Z,28.70
2017-08-30T00:45:26.831Z,30.27
2017-08-30T00:47:55.805Z,29.17
2017-08-30T00:50:23.969Z,29.15
2017-08-30T00:52:52.114Z,28.20
2017-08-30T00:55:20.314Z,29.35
2017-08-30T00:57:48.462Z,29.95
2017-08-30T01:00:16.624Z,31.08
2017-08-30T01:02:44.815Z,30.05
2017-08-30T01:05:12.986Z,28.70
2017-08-30T01:07:41.139Z,28.87
2017-08-30T01:10:09.347Z,30.52
2017-08-30T01:12:37.496Z,30.05
2017-08-30T01:15:05.654Z,30.80
2017-08-30T01:17:33.884Z,29.90
2017-08-30T01:20:02.053Z,31.50
2017-08-30T01:22:30.233Z,30.20
2017-08-30T01:24:58.410Z,32.97
2017-08-30T01:27:26.584Z,34.70
2017-08-30T01:29:54.747Z,31.10
2017-08-30T01:32:22.943Z,32.35
2017-08-30T01:34:51.103Z,32.65
2017-08-30T01:37:19.277Z,34.55
2017-08-30T01:39:47.451Z,33.10
2017-08-30T01:42:16.397Z,34.80
2017-08-30T01:44:44.573Z,33.47
2017-08-30T01:47:12.772Z,32.15
2017-08-30T01:49:40.948Z,33.40
2017-08-30T01:52:09.128Z,32.35
2017-08-30T01:54:37.307Z,34.67
2017-08-30T01:57:05.458Z,34.60
2017-08-30T01:59:33.610Z,33.13
2017-08-30T02:02:01.791Z,32.50
2017-08-30T02:04:29.961Z,32.45
2017-08-30T02:06:58.137Z,31.98
2017-08-30T02:09:26.333Z,33.15
2017-08-30T02:11:54.482Z,31.73
2017-08-30T02:14:22.657Z,33.35
2017-08-30T02:16:50.837Z,32.85
2017-08-30T02:19:19.751Z,33.15
2017-08-30T02:21:47.927Z,34.55
2017-08-30T02:24:16.113Z,35.85
2017-08-30T02:26:44.283Z,33.38
2017-08-30T02:29:12.430Z,34.88
2017-08-30T02:31:40.615Z,33.78
2017-08-30T02:34:08.788Z,35.42
2017-08-30T02:36:36.947Z,34.17
2017-08-30T02:39:05.904Z,34.40
2017-08-30T02:41:34.058Z,32.25
2017-08-30T02:44:02.212Z,32.10
2017-08-30T02:46:30.414Z,33.08
2017-08-30T02:48:58.589Z,33.33
2017-08-30T02:51:27.702Z,33.45
2017-08-30T02:53:55.897Z,34.22
2017-08-30T02:56:24.074Z,32.92
2017-08-30T02:58:52.249Z,34.00
2017-08-30T03:01:20.423Z,31.60
2017-08-30T03:03:48.597Z,32.28
2017-08-30T03:06:16.770Z,33.53
2017-08-30T03:08:45.979Z,33.97
2017-08-30T03:11:14.151Z,32.03
2017-08-30T03:13:42.337Z,32.60
2017-08-30T03:16:10.510Z,32.83
2017-08-30T03:18:38.680Z,32.53
2017-08-30T03:21:06.849Z,33.55
2017-08-30T03:23:35.820Z,32.53
2017-08-30T03:26:03.996Z,31.95
2017-08-30T03:28:32.165Z,31.45
2017-08-30T03:31:00.367Z,33.60
2017-08-30T03:33:29.301Z,35.03
2017-08-30T03:35:57.474Z,33.83
2017-08-30T03:38:25.650Z,33.03
2017-08-30T03:40:53.798Z,34.17
2017-08-30T03:43:21.949Z,33.60
2017-08-30T03:45:50.158Z,32.90
2017-08-30T03:48:18.313Z,32.42
2017-08-30T03:50:46.467Z,33.42
2017-08-30T03:53:14.651Z,33.70
2017-08-30T03:55:42.827Z,31.33
2017-08-30T03:58:11.006Z,34.03
2017-08-30T04:00:39.183Z,33.10
2017-08-30T04:03:07.338Z,33.50
2017-08-30T04:05:35.487Z,33.42
2017-08-30T04:08:03.668Z,35.83
2017-08-30T04:10:31.828Z,35.13
2017-08-30T04:12:59.982Z,38.58
2017-08-30T04:15:28.159Z,37.10
2017-08-30T04:17:56.327Z,37.08
2017-08-30T04:20:24.509Z,37.58
2017-08-30T04:22:52.714Z,39.15
2017-08-30T04:25:20.888Z,39.15
2017-08-30T04:27:49.057Z,40.97
2017-08-30T04:30:17.243Z,43.60
2017-08-30T04:32:45.412Z,43.42
2017-08-30T04:35:13.585Z,42.65
2017-08-30T04:37:41.776Z,41.22
2017-08-30T04:40:09.926Z,43.58
2017-08-30T04:42:38.860Z,42.58
2017-08-30T04:45:08.310Z,42.80
2017-08-30T04:47:36.513Z,41.42
2017-08-30T04:50:04.667Z,44.97
2017-08-30T04:52:32.873Z,46.03
2017-08-30T04:55:01.022Z,42.45
2017-08-30T04:57:29.189Z,47.00
2017-08-30T04:59:58.145Z,45.45
2017-08-30T05:02:26.321Z,44.88
2017-08-30T05:04:54.493Z,45.12
2017-08-30T05:07:22.881Z,43.63
2017-08-30T05:09:51.035Z,45.60
2017-08-30T05:12:19.205Z,46.20
2017-08-30T05:14:47.401Z,45.40
2017-08-30T05:17:15.555Z,46.50
2017-08-30T05:19:43.708Z,46.60
2017-08-30T05:22:11.908Z,46.53
2017-08-30T05:24:40.081Z,45.95
2017-08-30T05:27:08.254Z,47.95
2017-08-30T05:29:36.455Z,48.50
2017-08-30T05:32:04.624Z,47.80
2017-08-30T05:34:32.792Z,48.90
2017-08-30T05:37:00.970Z,49.70
2017-08-30T05:39:29.145Z,49.40
2017-08-30T05:41:57.329Z,47.62
2017-08-30T05:44:25.804Z,45.35
2017-08-30T05:46:53.965Z,45.03
2017-08-30T05:49:22.122Z,45.47
2017-08-30T05:51:50.303Z,45.58
2017-08-30T05:54:18.473Z,44.33
2017-08-30T05:56:46.653Z,43.38
2017-08-30T05:59:14.835Z,41.00
2017-08-30T06:01:43.324Z,39.90
2017-08-30T06:04:11.495Z,40.22
2017-08-30T06:06:39.678Z,37.72
2017-08-30T06:09:07.852Z,36.35
2017-08-30T06:11:36.027Z,35.83
2017-08-30T06:14:04.220Z,35.05
2017-08-30T06:16:32.397Z,32.70
2017-08-30T06:19:00.550Z,32.08
2017-08-30T06:21:28.744Z,33.20
2017-08-30T06:23:56.918Z,32.25
2017-08-30T06:26:25.086Z,32.72
2017-08-30T06:28:53.294Z,31.77
2017-08-30T06:31:21.448Z,29.85
2017-08-30T06:33:49.617Z,28.75
2017-08-30T06:36:17.821Z,27.98
2017-08-30T06:38:45.979Z,27.50
2017-08-30T06:41:14.136Z,28.42
2017-08-30T06:43:42.323Z,27.13
2017-08-30T06:46:10.495Z,25.92
2017-08-30T06:48:38.652Z,26.37
2017-08-30T06:51:06.865Z,26.40
2017-08-30T06:53:35.811Z,25.98
2017-08-30T06:56:03.981Z,24.15
2017-08-30T06:58:32.177Z,25.62
2017-08-30T07:01:00.330Z,25.73
2017-08-30T07:03:28.510Z,26.05
2017-08-30T07:05:57.619Z,25.60
2017-08-30T07:08:25.782Z,24.90
2017-08-30T07:10:53.938Z,24.30
2017-08-30T07:13:22.201Z,22.23
2017-08-30T07:15:50.374Z,24.60
2017-08-30T07:18:18.546Z,22.87
2017-08-30T07:20:46.737Z,21.55
2017-08-30T07:23:14.910Z,22.67
2017-08-30T07:25:43.063Z,22.92
2017-08-30T07:28:11.275Z,21.25
2017-08-30T07:30:39.436Z,22.83
2017-08-30T07:33:07.608Z,22.17
2017-08-30T07:35:36.537Z,23.70
2017-08-30T07:38:04.713Z,21.62
2017-08-30T07:40:32.889Z,22.35
2017-08-30T07:43:01.133Z,20.60
2017-08-30T07:45:29.290Z,21.30
2017-08-30T07:48:01.649Z,21.30
2017-08-30T07:50:31.749Z,20.95
2017-08-30T07:53:08.046Z,20.20
2017-08-30T07:55:37.206Z,19.37
2017-08-30T07:58:05.365Z,20.02
2017-08-30T08:00:33.524Z,19.62
2017-08-30T08:03:01.736Z,19.20
2017-08-30T08:05:43.813Z,19.05
2017-08-30T08:08:12.038Z,18.43
2017-08-30T08:10:40.198Z,19.05
2017-08-30T08:13:08.359Z,18.13
2017-08-30T08:15:36.558Z,17.27
2017-08-30T08:18:04.725Z,17.37
2017-08-30T08:20:32.900Z,17.20
2017-08-30T08:23:05.959Z,16.37
2017-08-30T08:25:34.245Z,15.10
2017-08-30T08:28:04.428Z,15.77
2017-08-30T08:30:32.623Z,15.23
2017-08-30T08:33:00.800Z,15.27
2017-08-30T08:35:28.993Z,14.30
2017-08-30T08:37:58.251Z,14.13
2017-08-30T08:40:26.677Z,14.00
2017-08-30T08:42:54.853Z,14.17
2017-08-30T08:45:23.054Z,15.10
2017-08-30T08:47:51.226Z,14.53
2017-08-30T08:50:19.471Z,14.13
2017-08-30T21:24:04.694Z,40.20
2017-08-30T21:26:32.869Z,38.63
2017-08-30T21:29:01.015Z,38.47
2017-08-30T21:31:29.218Z,40.10
2017-08-30T21:33:57.387Z,39.40
2017-08-30T21:36:25.691Z,41.95
2017-08-30T21:38:53.893Z,41.35
2017-08-30T21:41:22.053Z,44.00
2017-08-30T21:43:50.208Z,44.95
2017-08-30T21:46:19.168Z,44.75
2017-08-30T21:48:47.823Z,44.30
2017-08-30T21:51:16.459Z,42.90
2017-08-30T21:53:44.706Z,44.58
2017-08-30T21:56:12.888Z,42.80
2017-08-30T21:58:41.042Z,47.60
2017-08-30T22:01:09.237Z,44.75
2017-08-30T22:03:37.410Z,44.83
2017-08-30T22:06:05.583Z,44.42
2017-08-30T22:08:33.771Z,42.30
2017-08-30T22:11:01.924Z,45.00
2017-08-30T22:13:30.073Z,47.00
2017-08-30T22:15:58.256Z,46.15
2017-08-30T22:18:26.403Z,44.90
2017-08-30T22:20:54.550Z,47.45
2017-08-30T22:23:22.729Z,47.25
2017-08-30T22:25:50.881Z,47.42
2017-08-30T22:28:19.035Z,46.80
2017-08-30T22:30:47.211Z,49.05
2017-08-30T22:33:15.382Z,48.97
2017-08-30T22:35:43.554Z,47.47
2017-08-30T22:38:11.731Z,47.13
2017-08-30T22:40:39.878Z,48.55
2017-08-30T22:43:08.031Z,53.95
2017-08-30T22:45:36.210Z,47.72
2017-08-30T22:48:05.169Z,47.42
2017-08-30T22:50:33.340Z,48.33
2017-08-30T22:53:01.523Z,51.05
2017-08-30T22:55:29.683Z,50.92
2017-08-30T22:57:57.836Z,53.05
2017-08-30T23:00:26.039Z,50.55
2017-08-30T23:02:54.212Z,55.25
2017-08-30T23:05:22.681Z,49.75
2017-08-30T23:07:50.886Z,51.67
2017-08-30T23:10:19.029Z,50.50
2017-08-30T23:12:47.179Z,51.92
2017-08-30T23:15:15.373Z,49.95
2017-08-30T23:17:43.524Z,37.10
2017-08-30T23:20:11.671Z,38.45
2017-08-30T23:22:40.617Z,41.10
2017-08-30T23:25:08.785Z,36.42
2017-08-30T23:27:36.935Z,37.72
2017-08-30T23:30:05.111Z,36.72
2017-08-30T23:32:33.282Z,39.50
2017-08-30T23:35:01.430Z,38.33
2017-08-30T23:37:29.971Z,39.15
2017-08-30T23:39:58.118Z,34.85
2017-08-30T23:42:26.269Z,32.38
2017-08-30T23:44:54.480Z,32.45
2017-08-30T23:47:22.636Z,26.62
2017-08-30T23:49:50.792Z,27.70
2017-08-30T23:52:18.975Z,24.87
2017-08-30T23:54:47.910Z,25.33
2017-08-30T23:57:16.076Z,26.05
2017-08-30T23:59:44.273Z,26.15
